sensor_id;sensor_type;location;lat;lon;timestamp;temperature;humidity
50162;DHT22;36061;48.116;11.612;2024-03-25T00:01:16;3.80;99.90
50162;DHT22;36061;48.116;11.612;2024-03-25T00:03:42;3.80;99.90
50162;DHT22;36061;48.116;11.612;2024-03-25T00:06:10;3.80;99.90
50162;DHT22;36061;48.116;11.612;2024-03-25T00:08:37;3.80;99.90
50162;DHT22;36061;48.116;11.612;2024-03-25T00:11:05;3.80;99.90
50162;DHT22;36061;48.116;11.612;2024-03-25T00:13:31;3.80;99.90
50162;DHT22;36061;48.116;11.612;2024-03-25T00:15:59;3.80;99.90
50162;DHT22;36061;48.116;11.612;2024-03-25T00:18:27;3.80;99.90
50162;DHT22;36061;48.116;11.612;2024-03-25T00:20:54;3.90;99.90
50162;DHT22;36061;48.116;11.612;2024-03-25T00:23:21;3.80;99.90
50162;DHT22;36061;48.116;11.612;2024-03-25T00:25:48;3.80;99.90
50162;DHT22;36061;48.116;11.612;2024-03-25T00:28:15;3.80;99.90
50162;DHT22;36061;48.116;11.612;2024-03-25T00:30:42;3.80;99.90
50162;DHT22;36061;48.116;11.612;2024-03-25T00:33:09;3.80;99.90
50162;DHT22;36061;48.116;11.612;2024-03-25T00:35:39;3.80;99.90
50162;DHT22;36061;48.116;11.612;2024-03-25T00:38:05;3.70;99.90
50162;DHT22;36061;48.116;11.612;2024-03-25T00:40:33;3.80;99.90
50162;DHT22;36061;48.116;11.612;2024-03-25T00:43:00;3.80;99.90
50162;DHT22;36061;48.116;11.612;2024-03-25T00:45:28;3.70;99.90
50162;DHT22;36061;48.116;11.612;2024-03-25T00:47:56;3.80;99.90
50162;DHT22;36061;48.116;11.612;2024-03-25T00:50:25;3.70;99.90
50162;DHT22;36061;48.116;11.612;2024-03-25T00:52:53;3.80;99.90
50162;DHT22;36061;48.116;11.612;2024-03-25T00:55:21;3.80;99.90
50162;DHT22;36061;48.116;11.612;2024-03-25T00:57:48;3.80;99.90
50162;DHT22;36061;48.116;11.612;2024-03-25T01:00:16;3.80;99.90
50162;DHT22;36061;48.116;11.612;2024-03-25T01:02:43;3.80;99.90
50162;DHT22;36061;48.116;11.612;2024-03-25T01:05:11;3.70;99.90
50162;DHT22;36061;48.116;11.612;2024-03-25T01:07:38;3.70;99.90
50162;DHT22;36061;48.116;11.612;2024-03-25T01:10:08;3.60;99.90
50162;DHT22;36061;48.116;11.612;2024-03-25T01:12:34;3.60;99.90
50162;DHT22;36061;48.116;11.612;2024-03-25T01:15:02;3.60;99.90
50162;DHT22;36061;48.116;11.612;2024-03-25T01:17:30;3.60;99.90
50162;DHT22;36061;48.116;11.612;2024-03-25T01:19:57;3.60;99.90
50162;DHT22;36061;48.116;11.612;2024-03-25T01:22:24;3.60;99.90
50162;DHT22;36061;48.116;11.612;2024-03-25T01:24:51;3.50;99.90
50162;DHT22;36061;48.116;11.612;2024-03-25T01:27:19;3.50;99.90
50162;DHT22;36061;48.116;11.612;2024-03-25T01:29:47;3.50;99.90
50162;DHT22;36061;48.116;11.612;2024-03-25T01:32:14;3.50;99.90
50162;DHT22;36061;48.116;11.612;2024-03-25T01:34:41;3.60;99.90
50162;DHT22;36061;48.116;11.612;2024-03-25T01:37:08;3.60;99.90
50162;DHT22;36061;48.116;11.612;2024-03-25T01:39:35;3.50;99.90
50162;DHT22;36061;48.116;11.612;2024-03-25T01:42:03;3.50;99.90
50162;DHT22;36061;48.116;11.612;2024-03-25T01:44:32;3.50;99.90
50162;DHT22;36061;48.116;11.612;2024-03-25T01:47:00;3.50;99.90
50162;DHT22;36061;48.116;11.612;2024-03-25T01:49:28;3.50;99.90
50162;DHT22;36061;48.116;11.612;2024-03-25T01:51:54;3.60;99.90
50162;DHT22;36061;48.116;11.612;2024-03-25T01:54:23;3.60;99.90
50162;DHT22;36061;48.116;11.612;2024-03-25T01:56:50;3.60;99.90
50162;DHT22;36061;48.116;11.612;2024-03-25T01:59:19;3.60;99.90
50162;DHT22;36061;48.116;11.612;2024-03-25T02:01:48;3.60;99.90
50162;DHT22;36061;48.116;11.612;2024-03-25T02:04:16;3.60;99.90
50162;DHT22;36061;48.116;11.612;2024-03-25T02:06:44;3.50;99.90
50162;DHT22;36061;48.116;11.612;2024-03-25T02:09:12;3.50;99.90
50162;DHT22;36061;48.116;11.612;2024-03-25T02:11:40;3.50;99.90
50162;DHT22;36061;48.116;11.612;2024-03-25T02:14:09;3.50;99.90
50162;DHT22;36061;48.116;11.612;2024-03-25T02:16:35;3.50;99.90
50162;DHT22;36061;48.116;11.612;2024-03-25T02:19:04;3.50;99.90
50162;DHT22;36061;48.116;11.612;2024-03-25T02:21:31;3.50;99.90
50162;DHT22;36061;48.116;11.612;2024-03-25T02:24:00;3.50;99.90
50162;DHT22;36061;48.116;11.612;2024-03-25T02:26:30;3.50;99.90
50162;DHT22;36061;48.116;11.612;2024-03-25T02:28:58;3.60;99.90
50162;DHT22;36061;48.116;11.612;2024-03-25T02:31:24;3.60;99.90
50162;DHT22;36061;48.116;11.612;2024-03-25T02:33:52;3.60;99.90
50162;DHT22;36061;48.116;11.612;2024-03-25T02:36:19;3.50;99.90
50162;DHT22;36061;48.116;11.612;2024-03-25T02:38:46;3.50;99.90
50162;DHT22;36061;48.116;11.612;2024-03-25T02:41:13;3.60;99.90
50162;DHT22;36061;48.116;11.612;2024-03-25T02:43:42;3.50;99.90
50162;DHT22;36061;48.116;11.612;2024-03-25T02:46:09;3.60;99.90
50162;DHT22;36061;48.116;11.612;2024-03-25T02:48:36;3.60;99.90
50162;DHT22;36061;48.116;11.612;2024-03-25T02:51:03;3.60;99.90
50162;DHT22;36061;48.116;11.612;2024-03-25T02:53:31;3.50;99.90
50162;DHT22;36061;48.116;11.612;2024-03-25T02:55:57;3.60;99.90
50162;DHT22;36061;48.116;11.612;2024-03-25T02:58:25;3.60;99.90
50162;DHT22;36061;48.116;11.612;2024-03-25T03:00:53;3.70;99.90
50162;DHT22;36061;48.116;11.612;2024-03-25T03:03:20;3.70;99.90
50162;DHT22;36061;48.116;11.612;2024-03-25T03:05:47;3.70;99.90
50162;DHT22;36061;48.116;11.612;2024-03-25T03:08:14;3.70;99.90
50162;DHT22;36061;48.116;11.612;2024-03-25T03:10:41;3.70;99.90
50162;DHT22;36061;48.116;11.612;2024-03-25T03:13:09;3.70;99.90
50162;DHT22;36061;48.116;11.612;2024-03-25T03:15:36;3.70;99.90
50162;DHT22;36061;48.116;11.612;2024-03-25T03:18:05;3.70;99.90
50162;DHT22;36061;48.116;11.612;2024-03-25T03:20:32;3.70;99.90
50162;DHT22;36061;48.116;11.612;2024-03-25T03:23:00;3.70;99.90
50162;DHT22;36061;48.116;11.612;2024-03-25T03:25:26;3.70;99.90
50162;DHT22;36061;48.116;11.612;2024-03-25T03:27:55;3.70;99.90
50162;DHT22;36061;48.116;11.612;2024-03-25T03:30:22;3.70;99.90
50162;DHT22;36061;48.116;11.612;2024-03-25T03:32:49;3.70;99.90
50162;DHT22;36061;48.116;11.612;2024-03-25T03:35:17;3.60;99.90
50162;DHT22;36061;48.116;11.612;2024-03-25T03:37:45;3.60;99.90
50162;DHT22;36061;48.116;11.612;2024-03-25T03:40:12;3.70;99.90
50162;DHT22;36061;48.116;11.612;2024-03-25T03:42:40;3.70;99.90
50162;DHT22;36061;48.116;11.612;2024-03-25T03:45:07;3.70;99.90
50162;DHT22;36061;48.116;11.612;2024-03-25T03:47:35;3.60;99.90
50162;DHT22;36061;48.116;11.612;2024-03-25T03:50:01;3.60;99.90
50162;DHT22;36061;48.116;11.612;2024-03-25T03:52:30;3.60;99.90
50162;DHT22;36061;48.116;11.612;2024-03-25T03:54:57;3.60;99.90
50162;DHT22;36061;48.116;11.612;2024-03-25T03:57:24;3.50;99.90
50162;DHT22;36061;48.116;11.612;2024-03-25T03:59:52;3.50;99.90
50162;DHT22;36061;48.116;11.612;2024-03-25T04:02:20;3.50;99.90
50162;DHT22;36061;48.116;11.612;2024-03-25T04:04:46;3.40;99.90
50162;DHT22;36061;48.116;11.612;2024-03-25T04:07:14;3.40;99.90
50162;DHT22;36061;48.116;11.612;2024-03-25T04:09:42;3.30;99.90
50162;DHT22;36061;48.116;11.612;2024-03-25T04:12:10;3.30;99.90
50162;DHT22;36061;48.116;11.612;2024-03-25T04:14:37;3.20;99.90
50162;DHT22;36061;48.116;11.612;2024-03-25T04:17:05;3.10;99.90
50162;DHT22;36061;48.116;11.612;2024-03-25T04:19:31;3.10;99.90
50162;DHT22;36061;48.116;11.612;2024-03-25T04:21:59;3.10;99.90
50162;DHT22;36061;48.116;11.612;2024-03-25T04:24:27;3.10;99.90
50162;DHT22;36061;48.116;11.612;2024-03-25T04:26:56;3.10;99.90
50162;DHT22;36061;48.116;11.612;2024-03-25T04:29:22;3.10;99.90
50162;DHT22;36061;48.116;11.612;2024-03-25T04:31:50;3.10;99.90
50162;DHT22;36061;48.116;11.612;2024-03-25T04:34:16;3.10;99.90
50162;DHT22;36061;48.116;11.612;2024-03-25T04:36:45;3.10;99.90
50162;DHT22;36061;48.116;11.612;2024-03-25T04:39:11;3.00;99.90
50162;DHT22;36061;48.116;11.612;2024-03-25T04:41:38;3.00;99.90
50162;DHT22;36061;48.116;11.612;2024-03-25T04:44:06;3.00;99.90
50162;DHT22;36061;48.116;11.612;2024-03-25T04:46:32;2.90;99.90
50162;DHT22;36061;48.116;11.612;2024-03-25T04:48:59;2.90;99.90
50162;DHT22;36061;48.116;11.612;2024-03-25T04:51:26;2.90;99.90
50162;DHT22;36061;48.116;11.612;2024-03-25T04:53:52;2.90;99.90
50162;DHT22;36061;48.116;11.612;2024-03-25T04:56:19;2.90;99.90
50162;DHT22;36061;48.116;11.612;2024-03-25T04:58:46;2.90;99.90
50162;DHT22;36061;48.116;11.612;2024-03-25T05:01:13;2.90;99.90
50162;DHT22;36061;48.116;11.612;2024-03-25T05:03:40;2.90;99.90
50162;DHT22;36061;48.116;11.612;2024-03-25T05:06:07;2.90;99.90
50162;DHT22;36061;48.116;11.612;2024-03-25T05:08:33;2.90;99.90
50162;DHT22;36061;48.116;11.612;2024-03-25T05:11:00;2.90;99.90
50162;DHT22;36061;48.116;11.612;2024-03-25T05:13:27;2.90;99.90
50162;DHT22;36061;48.116;11.612;2024-03-25T05:15:53;2.90;99.90
50162;DHT22;36061;48.116;11.612;2024-03-25T05:18:22;2.90;99.90
50162;DHT22;36061;48.116;11.612;2024-03-25T05:20:48;3.00;99.90
50162;DHT22;36061;48.116;11.612;2024-03-25T05:23:15;3.00;99.90
50162;DHT22;36061;48.116;11.612;2024-03-25T05:25:41;3.00;99.90
50162;DHT22;36061;48.116;11.612;2024-03-25T05:28:08;3.00;99.90
50162;DHT22;36061;48.116;11.612;2024-03-25T05:30:36;2.90;99.90
50162;DHT22;36061;48.116;11.612;2024-03-25T05:33:03;2.90;99.90
50162;DHT22;36061;48.116;11.612;2024-03-25T05:35:31;2.90;99.90
50162;DHT22;36061;48.116;11.612;2024-03-25T05:37:58;3.00;99.90
50162;DHT22;36061;48.116;11.612;2024-03-25T05:40:24;3.00;99.90
50162;DHT22;36061;48.116;11.612;2024-03-25T05:42:51;3.00;99.90
50162;DHT22;36061;48.116;11.612;2024-03-25T05:45:17;3.10;99.90
50162;DHT22;36061;48.116;11.612;2024-03-25T05:47:44;3.10;99.90
50162;DHT22;36061;48.116;11.612;2024-03-25T05:50:10;3.10;99.90
50162;DHT22;36061;48.116;11.612;2024-03-25T05:52:38;3.10;99.90
50162;DHT22;36061;48.116;11.612;2024-03-25T05:55:05;3.10;99.90
50162;DHT22;36061;48.116;11.612;2024-03-25T05:57:32;3.20;99.90
50162;DHT22;36061;48.116;11.612;2024-03-25T05:59:58;3.20;99.90
50162;DHT22;36061;48.116;11.612;2024-03-25T06:02:25;3.20;99.90
50162;DHT22;36061;48.116;11.612;2024-03-25T06:04:51;3.20;99.90
50162;DHT22;36061;48.116;11.612;2024-03-25T06:07:18;3.30;99.90
50162;DHT22;36061;48.116;11.612;2024-03-25T06:09:46;3.30;99.90
50162;DHT22;36061;48.116;11.612;2024-03-25T06:12:12;3.40;99.90
50162;DHT22;36061;48.116;11.612;2024-03-25T06:14:39;3.50;99.90
50162;DHT22;36061;48.116;11.612;2024-03-25T06:17:06;3.60;99.90
50162;DHT22;36061;48.116;11.612;2024-03-25T06:19:32;3.80;99.90
50162;DHT22;36061;48.116;11.612;2024-03-25T06:21:59;3.80;99.90
50162;DHT22;36061;48.116;11.612;2024-03-25T06:24:25;3.90;99.90
50162;DHT22;36061;48.116;11.612;2024-03-25T06:26:53;3.90;99.90
50162;DHT22;36061;48.116;11.612;2024-03-25T06:29:21;4.00;99.90
50162;DHT22;36061;48.116;11.612;2024-03-25T06:31:48;4.30;99.90
50162;DHT22;36061;48.116;11.612;2024-03-25T06:34:32;4.80;99.90
50162;DHT22;36061;48.116;11.612;2024-03-25T06:36:59;5.40;99.90
50162;DHT22;36061;48.116;11.612;2024-03-25T06:39:25;5.80;99.90
50162;DHT22;36061;48.116;11.612;2024-03-25T06:41:53;5.80;99.90
50162;DHT22;36061;48.116;11.612;2024-03-25T06:44:20;5.80;99.90
50162;DHT22;36061;48.116;11.612;2024-03-25T06:46:46;5.90;99.90
50162;DHT22;36061;48.116;11.612;2024-03-25T06:49:13;6.20;99.90
50162;DHT22;36061;48.116;11.612;2024-03-25T06:51:40;7.00;99.90
50162;DHT22;36061;48.116;11.612;2024-03-25T06:54:06;7.90;99.90
50162;DHT22;36061;48.116;11.612;2024-03-25T06:56:33;8.50;99.90
50162;DHT22;36061;48.116;11.612;2024-03-25T06:59:01;8.60;99.90
50162;DHT22;36061;48.116;11.612;2024-03-25T07:01:27;8.60;99.90
50162;DHT22;36061;48.116;11.612;2024-03-25T07:03:54;8.40;99.90
50162;DHT22;36061;48.116;11.612;2024-03-25T07:06:20;8.30;99.90
50162;DHT22;36061;48.116;11.612;2024-03-25T07:08:47;8.50;99.90
50162;DHT22;36061;48.116;11.612;2024-03-25T07:11:13;8.70;99.90
50162;DHT22;36061;48.116;11.612;2024-03-25T07:13:40;8.90;99.90
50162;DHT22;36061;48.116;11.612;2024-03-25T07:16:09;9.00;99.90
50162;DHT22;36061;48.116;11.612;2024-03-25T07:18:36;9.10;99.90
50162;DHT22;36061;48.116;11.612;2024-03-25T07:21:03;9.20;99.90
50162;DHT22;36061;48.116;11.612;2024-03-25T07:23:29;8.90;99.90
50162;DHT22;36061;48.116;11.612;2024-03-25T07:25:56;8.80;99.90
50162;DHT22;36061;48.116;11.612;2024-03-25T07:28:22;8.50;99.90
50162;DHT22;36061;48.116;11.612;2024-03-25T07:30:50;8.30;99.90
50162;DHT22;36061;48.116;11.612;2024-03-25T07:33:18;8.20;99.90
50162;DHT22;36061;48.116;11.612;2024-03-25T07:35:45;8.00;99.90
50162;DHT22;36061;48.116;11.612;2024-03-25T07:38:11;7.80;99.90
50162;DHT22;36061;48.116;11.612;2024-03-25T07:40:38;7.50;99.90
50162;DHT22;36061;48.116;11.612;2024-03-25T07:43:04;7.30;99.90
50162;DHT22;36061;48.116;11.612;2024-03-25T07:45:31;7.30;99.90
50162;DHT22;36061;48.116;11.612;2024-03-25T07:47:58;7.10;99.90
50162;DHT22;36061;48.116;11.612;2024-03-25T07:50:25;7.20;99.90
50162;DHT22;36061;48.116;11.612;2024-03-25T07:52:52;7.30;99.90
50162;DHT22;36061;48.116;11.612;2024-03-25T07:55:18;7.30;99.90
50162;DHT22;36061;48.116;11.612;2024-03-25T07:57:45;7.30;99.90
50162;DHT22;36061;48.116;11.612;2024-03-25T08:00:13;7.30;99.90
50162;DHT22;36061;48.116;11.612;2024-03-25T08:02:40;7.30;99.90
50162;DHT22;36061;48.116;11.612;2024-03-25T08:05:06;7.40;99.90
50162;DHT22;36061;48.116;11.612;2024-03-25T08:07:34;7.60;99.90
50162;DHT22;36061;48.116;11.612;2024-03-25T08:10:01;7.60;99.90
50162;DHT22;36061;48.116;11.612;2024-03-25T08:12:27;7.70;99.90
50162;DHT22;36061;48.116;11.612;2024-03-25T08:14:54;7.80;99.90
50162;DHT22;36061;48.116;11.612;2024-03-25T08:17:20;7.80;99.90
50162;DHT22;36061;48.116;11.612;2024-03-25T08:19:47;7.90;99.90
50162;DHT22;36061;48.116;11.612;2024-03-25T08:22:14;8.00;99.90
50162;DHT22;36061;48.116;11.612;2024-03-25T08:24:42;8.00;99.90
50162;DHT22;36061;48.116;11.612;2024-03-25T08:27:08;8.00;99.90
50162;DHT22;36061;48.116;11.612;2024-03-25T08:29:35;8.00;99.90
50162;DHT22;36061;48.116;11.612;2024-03-25T08:32:01;7.90;99.90
50162;DHT22;36061;48.116;11.612;2024-03-25T08:34:28;7.70;99.90
50162;DHT22;36061;48.116;11.612;2024-03-25T08:36:54;7.60;99.90
50162;DHT22;36061;48.116;11.612;2024-03-25T08:39:21;7.60;99.90
50162;DHT22;36061;48.116;11.612;2024-03-25T08:41:49;7.70;99.90
50162;DHT22;36061;48.116;11.612;2024-03-25T08:44:15;7.90;99.90
50162;DHT22;36061;48.116;11.612;2024-03-25T08:46:43;7.90;99.90
50162;DHT22;36061;48.116;11.612;2024-03-25T08:49:10;7.90;99.90
50162;DHT22;36061;48.116;11.612;2024-03-25T08:51:36;7.90;99.90
50162;DHT22;36061;48.116;11.612;2024-03-25T08:54:03;7.70;99.90
50162;DHT22;36061;48.116;11.612;2024-03-25T08:56:29;7.70;99.90
50162;DHT22;36061;48.116;11.612;2024-03-25T08:58:57;7.80;99.90
50162;DHT22;36061;48.116;11.612;2024-03-25T09:01:24;7.90;99.90
50162;DHT22;36061;48.116;11.612;2024-03-25T09:03:51;8.10;99.90
50162;DHT22;36061;48.116;11.612;2024-03-25T09:06:17;8.20;99.90
50162;DHT22;36061;48.116;11.612;2024-03-25T09:08:44;8.20;99.90
50162;DHT22;36061;48.116;11.612;2024-03-25T09:11:25;8.30;99.90
50162;DHT22;36061;48.116;11.612;2024-03-25T09:13:51;8.40;99.90
50162;DHT22;36061;48.116;11.612;2024-03-25T09:16:19;8.60;99.90
50162;DHT22;36061;48.116;11.612;2024-03-25T09:18:46;8.60;99.90
50162;DHT22;36061;48.116;11.612;2024-03-25T09:21:12;8.50;99.90
50162;DHT22;36061;48.116;11.612;2024-03-25T09:23:39;8.60;99.90
50162;DHT22;36061;48.116;11.612;2024-03-25T09:26:06;8.60;99.90
50162;DHT22;36061;48.116;11.612;2024-03-25T09:28:32;8.60;99.90
50162;DHT22;36061;48.116;11.612;2024-03-25T09:30:59;8.70;99.90
50162;DHT22;36061;48.116;11.612;2024-03-25T09:33:27;8.90;99.90
50162;DHT22;36061;48.116;11.612;2024-03-25T09:35:54;9.00;99.90
50162;DHT22;36061;48.116;11.612;2024-03-25T09:38:20;9.00;99.90
50162;DHT22;36061;48.116;11.612;2024-03-25T09:40:47;9.00;99.90
50162;DHT22;36061;48.116;11.612;2024-03-25T09:43:24;9.20;99.90
50162;DHT22;36061;48.116;11.612;2024-03-25T09:45:51;9.10;99.90
50162;DHT22;36061;48.116;11.612;2024-03-25T09:48:19;9.20;99.90
50162;DHT22;36061;48.116;11.612;2024-03-25T09:50:50;9.20;99.90
50162;DHT22;36061;48.116;11.612;2024-03-25T09:53:18;9.30;99.90
50162;DHT22;36061;48.116;11.612;2024-03-25T09:55:46;9.30;99.90
50162;DHT22;36061;48.116;11.612;2024-03-25T09:58:14;9.40;99.90
50162;DHT22;36061;48.116;11.612;2024-03-25T10:00:40;9.40;99.90
50162;DHT22;36061;48.116;11.612;2024-03-25T10:03:07;9.50;99.10
50162;DHT22;36061;48.116;11.612;2024-03-25T10:05:33;9.50;98.80
50162;DHT22;36061;48.116;11.612;2024-03-25T10:08:01;9.40;98.70
50162;DHT22;36061;48.116;11.612;2024-03-25T10:10:28;9.30;97.70
50162;DHT22;36061;48.116;11.612;2024-03-25T10:12:55;9.20;98.30
50162;DHT22;36061;48.116;11.612;2024-03-25T10:15:21;9.10;97.70
50162;DHT22;36061;48.116;11.612;2024-03-25T10:17:49;9.00;98.30
50162;DHT22;36061;48.116;11.612;2024-03-25T10:20:16;9.00;98.80
50162;DHT22;36061;48.116;11.612;2024-03-25T10:22:43;9.00;97.80
50162;DHT22;36061;48.116;11.612;2024-03-25T10:25:21;8.90;97.50
50162;DHT22;36061;48.116;11.612;2024-03-25T10:27:55;8.90;97.30
50162;DHT22;36061;48.116;11.612;2024-03-25T10:30:21;9.10;97.20
50162;DHT22;36061;48.116;11.612;2024-03-25T10:32:58;9.10;96.60
50162;DHT22;36061;48.116;11.612;2024-03-25T10:35:28;9.10;95.90
50162;DHT22;36061;48.116;11.612;2024-03-25T10:37:57;9.00;94.90
50162;DHT22;36061;48.116;11.612;2024-03-25T10:40:28;8.90;95.50
50162;DHT22;36061;48.116;11.612;2024-03-25T10:43:00;8.90;95.90
50162;DHT22;36061;48.116;11.612;2024-03-25T10:45:28;9.00;95.80
50162;DHT22;36061;48.116;11.612;2024-03-25T10:47:57;9.10;95.80
50162;DHT22;36061;48.116;11.612;2024-03-25T10:50:28;9.20;95.30
50162;DHT22;36061;48.116;11.612;2024-03-25T10:52:55;9.40;94.90
50162;DHT22;36061;48.116;11.612;2024-03-25T10:55:23;9.50;95.00
50162;DHT22;36061;48.116;11.612;2024-03-25T10:57:52;9.60;94.40
50162;DHT22;36061;48.116;11.612;2024-03-25T11:00:22;9.70;93.80
50162;DHT22;36061;48.116;11.612;2024-03-25T11:02:50;9.70;94.20
50162;DHT22;36061;48.116;11.612;2024-03-25T11:05:19;9.70;94.00
50162;DHT22;36061;48.116;11.612;2024-03-25T11:07:46;9.70;93.60
50162;DHT22;36061;48.116;11.612;2024-03-25T11:10:13;9.60;93.30
50162;DHT22;36061;48.116;11.612;2024-03-25T11:12:42;9.60;92.90
50162;DHT22;36061;48.116;11.612;2024-03-25T11:15:10;9.70;92.60
50162;DHT22;36061;48.116;11.612;2024-03-25T11:17:37;9.70;93.40
50162;DHT22;36061;48.116;11.612;2024-03-25T11:20:16;9.70;93.00
50162;DHT22;36061;48.116;11.612;2024-03-25T11:22:48;9.70;92.90
50162;DHT22;36061;48.116;11.612;2024-03-25T11:25:16;9.50;92.10
50162;DHT22;36061;48.116;11.612;2024-03-25T11:27:44;9.40;92.00
50162;DHT22;36061;48.116;11.612;2024-03-25T11:30:12;9.30;92.90
50162;DHT22;36061;48.116;11.612;2024-03-25T11:32:46;9.40;92.80
50162;DHT22;36061;48.116;11.612;2024-03-25T11:35:15;9.30;92.60
50162;DHT22;36061;48.116;11.612;2024-03-25T11:37:42;9.20;91.50
50162;DHT22;36061;48.116;11.612;2024-03-25T11:40:10;9.20;92.20
50162;DHT22;36061;48.116;11.612;2024-03-25T11:42:38;9.30;92.00
50162;DHT22;36061;48.116;11.612;2024-03-25T11:45:06;9.40;92.10
50162;DHT22;36061;48.116;11.612;2024-03-25T11:47:34;9.60;91.90
50162;DHT22;36061;48.116;11.612;2024-03-25T11:50:07;9.80;90.90
50162;DHT22;36061;48.116;11.612;2024-03-25T11:52:34;9.80;90.40
50162;DHT22;36061;48.116;11.612;2024-03-25T11:55:01;9.80;89.60
50162;DHT22;36061;48.116;11.612;2024-03-25T11:57:28;9.80;88.90
50162;DHT22;36061;48.116;11.612;2024-03-25T11:59:55;9.80;90.00
50162;DHT22;36061;48.116;11.612;2024-03-25T12:02:21;9.90;89.90
50162;DHT22;36061;48.116;11.612;2024-03-25T12:04:49;9.90;89.60
50162;DHT22;36061;48.116;11.612;2024-03-25T12:07:17;9.90;90.00
50162;DHT22;36061;48.116;11.612;2024-03-25T12:09:43;9.80;90.00
50162;DHT22;36061;48.116;11.612;2024-03-25T12:12:28;9.80;87.70
50162;DHT22;36061;48.116;11.612;2024-03-25T12:14:56;9.70;88.70
50162;DHT22;36061;48.116;11.612;2024-03-25T12:17:26;9.80;89.10
50162;DHT22;36061;48.116;11.612;2024-03-25T12:20:02;9.70;86.80
50162;DHT22;36061;48.116;11.612;2024-03-25T12:22:30;9.60;87.30
50162;DHT22;36061;48.116;11.612;2024-03-25T12:24:58;9.50;87.50
50162;DHT22;36061;48.116;11.612;2024-03-25T12:27:25;9.50;89.00
50162;DHT22;36061;48.116;11.612;2024-03-25T12:29:59;9.60;88.20
50162;DHT22;36061;48.116;11.612;2024-03-25T12:32:36;9.70;87.60
50162;DHT22;36061;48.116;11.612;2024-03-25T12:35:07;9.70;87.70
50162;DHT22;36061;48.116;11.612;2024-03-25T12:37:37;9.80;86.70
50162;DHT22;36061;48.116;11.612;2024-03-25T12:40:05;9.80;86.30
50162;DHT22;36061;48.116;11.612;2024-03-25T12:42:32;9.80;85.30
50162;DHT22;36061;48.116;11.612;2024-03-25T12:44:59;9.80;86.20
50162;DHT22;36061;48.116;11.612;2024-03-25T12:47:25;9.90;86.70
50162;DHT22;36061;48.116;11.612;2024-03-25T12:49:52;10.00;83.20
50162;DHT22;36061;48.116;11.612;2024-03-25T12:52:20;9.90;85.30
50162;DHT22;36061;48.116;11.612;2024-03-25T12:54:47;9.90;86.00
50162;DHT22;36061;48.116;11.612;2024-03-25T12:57:13;9.80;86.00
50162;DHT22;36061;48.116;11.612;2024-03-25T12:59:40;9.90;85.70
50162;DHT22;36061;48.116;11.612;2024-03-25T13:02:09;9.90;86.70
50162;DHT22;36061;48.116;11.612;2024-03-25T13:04:37;10.00;85.60
50162;DHT22;36061;48.116;11.612;2024-03-25T13:07:03;10.10;84.30
50162;DHT22;36061;48.116;11.612;2024-03-25T13:09:31;10.20;84.60
50162;DHT22;36061;48.116;11.612;2024-03-25T13:11:58;10.30;85.00
50162;DHT22;36061;48.116;11.612;2024-03-25T13:14:25;10.60;85.20
50162;DHT22;36061;48.116;11.612;2024-03-25T13:16:52;10.40;83.20
50162;DHT22;36061;48.116;11.612;2024-03-25T13:19:18;10.40;84.00
50162;DHT22;36061;48.116;11.612;2024-03-25T13:21:45;10.40;84.60
50162;DHT22;36061;48.116;11.612;2024-03-25T13:24:11;10.50;82.60
50162;DHT22;36061;48.116;11.612;2024-03-25T13:26:39;10.60;81.80
50162;DHT22;36061;48.116;11.612;2024-03-25T13:29:06;10.60;81.50
50162;DHT22;36061;48.116;11.612;2024-03-25T13:31:34;10.50;80.00
50162;DHT22;36061;48.116;11.612;2024-03-25T13:34:00;10.50;80.50
50162;DHT22;36061;48.116;11.612;2024-03-25T13:36:27;10.40;79.50
50162;DHT22;36061;48.116;11.612;2024-03-25T13:38:53;10.30;80.50
50162;DHT22;36061;48.116;11.612;2024-03-25T13:41:20;10.40;78.70
50162;DHT22;36061;48.116;11.612;2024-03-25T13:43:48;10.40;78.90
50162;DHT22;36061;48.116;11.612;2024-03-25T13:46:14;10.40;79.40
50162;DHT22;36061;48.116;11.612;2024-03-25T13:48:41;10.50;78.30
50162;DHT22;36061;48.116;11.612;2024-03-25T13:51:08;10.50;79.10
50162;DHT22;36061;48.116;11.612;2024-03-25T13:53:35;10.50;79.70
50162;DHT22;36061;48.116;11.612;2024-03-25T13:56:01;10.50;77.70
50162;DHT22;36061;48.116;11.612;2024-03-25T13:58:28;10.50;77.10
50162;DHT22;36061;48.116;11.612;2024-03-25T14:00:56;10.50;77.00
50162;DHT22;36061;48.116;11.612;2024-03-25T14:03:22;10.50;76.10
50162;DHT22;36061;48.116;11.612;2024-03-25T14:05:49;10.60;75.30
50162;DHT22;36061;48.116;11.612;2024-03-25T14:08:15;10.60;77.20
50162;DHT22;36061;48.116;11.612;2024-03-25T14:10:43;10.50;79.30
50162;DHT22;36061;48.116;11.612;2024-03-25T14:13:10;10.60;81.70
50162;DHT22;36061;48.116;11.612;2024-03-25T14:15:37;10.60;81.80
50162;DHT22;36061;48.116;11.612;2024-03-25T14:18:05;10.60;81.90
50162;DHT22;36061;48.116;11.612;2024-03-25T14:20:32;10.60;82.00
50162;DHT22;36061;48.116;11.612;2024-03-25T14:22:58;10.60;82.60
50162;DHT22;36061;48.116;11.612;2024-03-25T14:25:25;10.50;84.10
50162;DHT22;36061;48.116;11.612;2024-03-25T14:27:51;10.50;85.10
50162;DHT22;36061;48.116;11.612;2024-03-25T14:30:18;10.50;85.60
50162;DHT22;36061;48.116;11.612;2024-03-25T14:32:45;10.50;86.60
50162;DHT22;36061;48.116;11.612;2024-03-25T14:35:13;10.50;86.90
50162;DHT22;36061;48.116;11.612;2024-03-25T14:37:39;10.40;87.00
50162;DHT22;36061;48.116;11.612;2024-03-25T14:40:07;10.40;87.70
50162;DHT22;36061;48.116;11.612;2024-03-25T14:42:33;10.40;88.30
50162;DHT22;36061;48.116;11.612;2024-03-25T14:45:00;10.40;88.20
50162;DHT22;36061;48.116;11.612;2024-03-25T14:47:26;10.50;86.10
50162;DHT22;36061;48.116;11.612;2024-03-25T14:49:53;10.50;86.40
50162;DHT22;36061;48.116;11.612;2024-03-25T14:52:21;10.50;86.10
50162;DHT22;36061;48.116;11.612;2024-03-25T14:54:47;10.50;86.80
50162;DHT22;36061;48.116;11.612;2024-03-25T14:57:14;10.50;86.60
50162;DHT22;36061;48.116;11.612;2024-03-25T14:59:40;10.50;85.90
50162;DHT22;36061;48.116;11.612;2024-03-25T15:02:07;10.50;86.10
50162;DHT22;36061;48.116;11.612;2024-03-25T15:04:34;10.60;86.30
50162;DHT22;36061;48.116;11.612;2024-03-25T15:07:00;10.60;84.50
50162;DHT22;36061;48.116;11.612;2024-03-25T15:09:28;10.60;83.40
50162;DHT22;36061;48.116;11.612;2024-03-25T15:11:55;10.70;83.20
50162;DHT22;36061;48.116;11.612;2024-03-25T15:14:21;10.70;84.40
50162;DHT22;36061;48.116;11.612;2024-03-25T15:16:48;10.60;84.20
50162;DHT22;36061;48.116;11.612;2024-03-25T15:19:14;10.60;84.30
50162;DHT22;36061;48.116;11.612;2024-03-25T15:21:41;10.60;84.20
50162;DHT22;36061;48.116;11.612;2024-03-25T15:24:07;10.60;84.40
50162;DHT22;36061;48.116;11.612;2024-03-25T15:26:36;10.50;85.20
50162;DHT22;36061;48.116;11.612;2024-03-25T15:29:03;10.50;85.20